sensor_id;sensor_type;location;lat;lon;timestamp;P1;durP1;ratioP1;P2;durP2;ratioP2
85104;SDS011;75457;53.198;45.008;2024-01-30T00:04:51;18.55;;;10.23;;
85104;SDS011;75457;53.198;45.008;2024-01-30T00:07:16;19.17;;;10.43;;
85104;SDS011;75457;53.198;45.008;2024-01-30T00:09:42;18.85;;;10.65;;
85104;SDS011;75457;53.198;45.008;2024-01-30T00:12:08;17.73;;;10.13;;
85104;SDS011;75457;53.198;45.008;2024-01-30T00:14:33;21.45;;;10.82;;
85104;SDS011;75457;53.198;45.008;2024-01-30T00:17:00;19.85;;;9.98;;
85104;SDS011;75457;53.198;45.008;2024-01-30T00:19:26;19.75;;;10.18;;
85104;SDS011;75457;53.198;45.008;2024-01-30T00:21:51;17.67;;;9.50;;
85104;SDS011;75457;53.198;45.008;2024-01-30T00:24:17;17.58;;;11.43;;
85104;SDS011;75457;53.198;45.008;2024-01-30T00:26:42;21.02;;;11.00;;
85104;SDS011;75457;53.198;45.008;2024-01-30T00:29:08;18.02;;;10.27;;
85104;SDS011;75457;53.198;45.008;2024-01-30T00:31:34;17.85;;;10.02;;
85104;SDS011;75457;53.198;45.008;2024-01-30T00:34:01;16.88;;;9.15;;
85104;SDS011;75457;53.198;45.008;2024-01-30T00:36:27;14.07;;;8.55;;
85104;SDS011;75457;53.198;45.008;2024-01-30T00:38:52;14.50;;;7.78;;
85104;SDS011;75457;53.198;45.008;2024-01-30T00:41:18;12.98;;;7.80;;
85104;SDS011;75457;53.198;45.008;2024-01-30T00:43:43;14.43;;;8.32;;
85104;SDS011;75457;53.198;45.008;2024-01-30T00:46:09;14.32;;;7.90;;
85104;SDS011;75457;53.198;45.008;2024-01-30T00:48:35;14.73;;;8.68;;
85104;SDS011;75457;53.198;45.008;2024-01-30T00:51:01;11.63;;;7.00;;
85104;SDS011;75457;53.198;45.008;2024-01-30T00:53:27;13.65;;;8.00;;
85104;SDS011;75457;53.198;45.008;2024-01-30T00:55:53;15.93;;;8.18;;
85104;SDS011;75457;53.198;45.008;2024-01-30T00:58:18;12.43;;;6.78;;
85104;SDS011;75457;53.198;45.008;2024-01-30T01:00:44;15.25;;;8.20;;
85104;SDS011;75457;53.198;45.008;2024-01-30T01:03:09;13.38;;;8.18;;
85104;SDS011;75457;53.198;45.008;2024-01-30T01:05:35;14.95;;;8.07;;
85104;SDS011;75457;53.198;45.008;2024-01-30T01:08:02;12.68;;;7.82;;
85104;SDS011;75457;53.198;45.008;2024-01-30T01:10:28;13.80;;;8.98;;
85104;SDS011;75457;53.198;45.008;2024-01-30T01:12:53;13.38;;;8.18;;
85104;SDS011;75457;53.198;45.008;2024-01-30T01:15:19;12.02;;;7.22;;
85104;SDS011;75457;53.198;45.008;2024-01-30T01:17:45;11.30;;;7.05;;
85104;SDS011;75457;53.198;45.008;2024-01-30T01:20:10;11.02;;;7.78;;
85104;SDS011;75457;53.198;45.008;2024-01-30T01:22:37;11.15;;;7.38;;
85104;SDS011;75457;53.198;45.008;2024-01-30T01:25:04;11.52;;;7.20;;
85104;SDS011;75457;53.198;45.008;2024-01-30T01:27:30;11.43;;;6.95;;
85104;SDS011;75457;53.198;45.008;2024-01-30T01:29:56;11.98;;;7.13;;
85104;SDS011;75457;53.198;45.008;2024-01-30T01:32:21;12.38;;;6.47;;
85104;SDS011;75457;53.198;45.008;2024-01-30T01:34:47;10.27;;;7.05;;
85104;SDS011;75457;53.198;45.008;2024-01-30T01:37:12;9.73;;;6.65;;
85104;SDS011;75457;53.198;45.008;2024-01-30T01:39:38;10.63;;;7.07;;
85104;SDS011;75457;53.198;45.008;2024-01-30T01:42:05;12.70;;;7.10;;
85104;SDS011;75457;53.198;45.008;2024-01-30T01:44:31;12.77;;;7.00;;
85104;SDS011;75457;53.198;45.008;2024-01-30T01:46:56;11.45;;;7.00;;
85104;SDS011;75457;53.198;45.008;2024-01-30T01:49:22;11.90;;;6.38;;
85104;SDS011;75457;53.198;45.008;2024-01-30T01:51:50;11.48;;;6.28;;
85104;SDS011;75457;53.198;45.008;2024-01-30T01:54:18;10.00;;;6.18;;
85104;SDS011;75457;53.198;45.008;2024-01-30T01:56:43;9.77;;;6.53;;
85104;SDS011;75457;53.198;45.008;2024-01-30T01:59:10;11.20;;;6.30;;
85104;SDS011;75457;53.198;45.008;2024-01-30T02:01:36;9.35;;;5.75;;
85104;SDS011;75457;53.198;45.008;2024-01-30T02:04:02;10.73;;;6.82;;
85104;SDS011;75457;53.198;45.008;2024-01-30T02:06:28;10.23;;;6.18;;
85104;SDS011;75457;53.198;45.008;2024-01-30T02:08:54;10.38;;;6.40;;
85104;SDS011;75457;53.198;45.008;2024-01-30T02:11:19;9.52;;;6.57;;
85104;SDS011;75457;53.198;45.008;2024-01-30T02:13:45;10.05;;;6.28;;
85104;SDS011;75457;53.198;45.008;2024-01-30T02:16:12;10.32;;;6.95;;
85104;SDS011;75457;53.198;45.008;2024-01-30T02:18:38;12.05;;;6.60;;
85104;SDS011;75457;53.198;45.008;2024-01-30T02:21:05;8.93;;;5.50;;
85104;SDS011;75457;53.198;45.008;2024-01-30T02:23:31;9.57;;;5.88;;
85104;SDS011;75457;53.198;45.008;2024-01-30T02:25:58;9.80;;;6.18;;
85104;SDS011;75457;53.198;45.008;2024-01-30T02:28:24;7.25;;;4.93;;
85104;SDS011;75457;53.198;45.008;2024-01-30T02:30:49;7.70;;;5.18;;
85104;SDS011;75457;53.198;45.008;2024-01-30T02:33:15;9.57;;;6.18;;
85104;SDS011;75457;53.198;45.008;2024-01-30T02:35:40;8.25;;;5.20;;
85104;SDS011;75457;53.198;45.008;2024-01-30T02:38:07;9.38;;;5.78;;
85104;SDS011;75457;53.198;45.008;2024-01-30T02:40:33;7.90;;;4.95;;
85104;SDS011;75457;53.198;45.008;2024-01-30T02:42:59;8.77;;;5.43;;
85104;SDS011;75457;53.198;45.008;2024-01-30T02:45:25;8.10;;;5.45;;
85104;SDS011;75457;53.198;45.008;2024-01-30T02:47:50;7.80;;;5.57;;
85104;SDS011;75457;53.198;45.008;2024-01-30T02:50:17;7.97;;;5.63;;
85104;SDS011;75457;53.198;45.008;2024-01-30T02:52:43;8.45;;;5.40;;
85104;SDS011;75457;53.198;45.008;2024-01-30T02:55:10;8.32;;;4.88;;
85104;SDS011;75457;53.198;45.008;2024-01-30T02:57:36;10.50;;;6.55;;
85104;SDS011;75457;53.198;45.008;2024-01-30T03:00:01;10.38;;;6.10;;
85104;SDS011;75457;53.198;45.008;2024-01-30T03:02:27;8.15;;;5.97;;
85104;SDS011;75457;53.198;45.008;2024-01-30T03:04:53;9.80;;;6.22;;
85104;SDS011;75457;53.198;45.008;2024-01-30T03:07:18;9.18;;;5.70;;
85104;SDS011;75457;53.198;45.008;2024-01-30T03:09:44;8.88;;;5.28;;
85104;SDS011;75457;53.198;45.008;2024-01-30T03:12:11;8.35;;;5.45;;
85104;SDS011;75457;53.198;45.008;2024-01-30T03:14:36;7.40;;;5.70;;
85104;SDS011;75457;53.198;45.008;2024-01-30T03:17:02;8.65;;;5.60;;
85104;SDS011;75457;53.198;45.008;2024-01-30T03:19:28;7.55;;;5.00;;
85104;SDS011;75457;53.198;45.008;2024-01-30T03:21:53;8.45;;;5.40;;
85104;SDS011;75457;53.198;45.008;2024-01-30T03:24:19;8.93;;;5.88;;
85104;SDS011;75457;53.198;45.008;2024-01-30T03:26:44;8.98;;;5.63;;
85104;SDS011;75457;53.198;45.008;2024-01-30T03:29:11;8.23;;;5.18;;
85104;SDS011;75457;53.198;45.008;2024-01-30T03:31:37;9.43;;;6.13;;
85104;SDS011;75457;53.198;45.008;2024-01-30T03:34:03;9.48;;;6.30;;
85104;SDS011;75457;53.198;45.008;2024-01-30T03:36:29;8.98;;;5.80;;
85104;SDS011;75457;53.198;45.008;2024-01-30T03:38:54;10.82;;;5.97;;
85104;SDS011;75457;53.198;45.008;2024-01-30T03:41:20;9.07;;;5.95;;
85104;SDS011;75457;53.198;45.008;2024-01-30T03:43:46;9.55;;;6.25;;
85104;SDS011;75457;53.198;45.008;2024-01-30T03:46:13;10.15;;;5.90;;
85104;SDS011;75457;53.198;45.008;2024-01-30T03:48:39;8.55;;;6.43;;
85104;SDS011;75457;53.198;45.008;2024-01-30T03:53:30;9.87;;;6.13;;
85104;SDS011;75457;53.198;45.008;2024-01-30T03:55:55;10.32;;;6.55;;
85104;SDS011;75457;53.198;45.008;2024-01-30T04:00:46;10.10;;;5.90;;
85104;SDS011;75457;53.198;45.008;2024-01-30T04:05:39;8.75;;;5.55;;
85104;SDS011;75457;53.198;45.008;2024-01-30T04:08:05;9.25;;;5.80;;
85104;SDS011;75457;53.198;45.008;2024-01-30T04:10:31;11.73;;;7.18;;
85104;SDS011;75457;53.198;45.008;2024-01-30T04:12:56;9.18;;;6.28;;
85104;SDS011;75457;53.198;45.008;2024-01-30T04:15:22;8.50;;;5.63;;
85104;SDS011;75457;53.198;45.008;2024-01-30T04:17:47;11.98;;;6.18;;
85104;SDS011;75457;53.198;45.008;2024-01-30T04:20:15;9.02;;;6.35;;
85104;SDS011;75457;53.198;45.008;2024-01-30T04:22:41;11.98;;;6.63;;
85104;SDS011;75457;53.198;45.008;2024-01-30T04:25:07;12.70;;;7.38;;
85104;SDS011;75457;53.198;45.008;2024-01-30T04:27:33;13.02;;;7.57;;
85104;SDS011;75457;53.198;45.008;2024-01-30T04:29:58;9.93;;;6.95;;
85104;SDS011;75457;53.198;45.008;2024-01-30T04:32:24;14.98;;;8.93;;
85104;SDS011;75457;53.198;45.008;2024-01-30T04:34:49;12.25;;;6.38;;
85104;SDS011;75457;53.198;45.008;2024-01-30T04:37:16;10.10;;;7.13;;
85104;SDS011;75457;53.198;45.008;2024-01-30T04:39:42;14.25;;;8.15;;
85104;SDS011;75457;53.198;45.008;2024-01-30T04:42:07;11.48;;;7.78;;
85104;SDS011;75457;53.198;45.008;2024-01-30T04:44:33;10.90;;;6.43;;
85104;SDS011;75457;53.198;45.008;2024-01-30T04:46:58;11.15;;;7.63;;
85104;SDS011;75457;53.198;45.008;2024-01-30T04:49:24;10.00;;;6.13;;
85104;SDS011;75457;53.198;45.008;2024-01-30T04:51:49;10.10;;;6.28;;
85104;SDS011;75457;53.198;45.008;2024-01-30T04:54:16;9.35;;;7.15;;
85104;SDS011;75457;53.198;45.008;2024-01-30T04:56:42;8.65;;;6.13;;
85104;SDS011;75457;53.198;45.008;2024-01-30T05:01:33;9.80;;;6.23;;
85104;SDS011;75457;53.198;45.008;2024-01-30T05:03:58;9.68;;;6.32;;
85104;SDS011;75457;53.198;45.008;2024-01-30T05:06:24;9.50;;;6.10;;
85104;SDS011;75457;53.198;45.008;2024-01-30T05:08:50;10.90;;;6.50;;
85104;SDS011;75457;53.198;45.008;2024-01-30T05:11:17;8.98;;;6.00;;
85104;SDS011;75457;53.198;45.008;2024-01-30T05:13:42;9.77;;;5.43;;
85104;SDS011;75457;53.198;45.008;2024-01-30T05:16:08;10.38;;;6.38;;
85104;SDS011;75457;53.198;45.008;2024-01-30T05:18:33;9.60;;;6.00;;
85104;SDS011;75457;53.198;45.008;2024-01-30T05:20:59;12.55;;;7.13;;
85104;SDS011;75457;53.198;45.008;2024-01-30T05:23:24;10.70;;;6.53;;
85104;SDS011;75457;53.198;45.008;2024-01-30T05:25:50;12.55;;;7.45;;
85104;SDS011;75457;53.198;45.008;2024-01-30T05:28:17;11.18;;;6.38;;
85104;SDS011;75457;53.198;45.008;2024-01-30T05:30:42;11.98;;;6.50;;
85104;SDS011;75457;53.198;45.008;2024-01-30T05:33:08;11.23;;;7.00;;
85104;SDS011;75457;53.198;45.008;2024-01-30T05:35:34;8.85;;;6.00;;
85104;SDS011;75457;53.198;45.008;2024-01-30T05:37:59;13.95;;;7.40;;
85104;SDS011;75457;53.198;45.008;2024-01-30T05:40:25;10.27;;;6.80;;
85104;SDS011;75457;53.198;45.008;2024-01-30T05:42:50;11.02;;;7.10;;
85104;SDS011;75457;53.198;45.008;2024-01-30T05:45:17;10.82;;;7.13;;
85104;SDS011;75457;53.198;45.008;2024-01-30T05:47:43;11.18;;;7.03;;
85104;SDS011;75457;53.198;45.008;2024-01-30T05:50:08;12.98;;;7.43;;
85104;SDS011;75457;53.198;45.008;2024-01-30T05:52:34;11.32;;;6.57;;
85104;SDS011;75457;53.198;45.008;2024-01-30T05:55:00;12.55;;;7.65;;
85104;SDS011;75457;53.198;45.008;2024-01-30T05:57:25;12.52;;;7.07;;
85104;SDS011;75457;53.198;45.008;2024-01-30T05:59:51;12.60;;;7.90;;
85104;SDS011;75457;53.198;45.008;2024-01-30T06:02:18;11.98;;;7.38;;
85104;SDS011;75457;53.198;45.008;2024-01-30T06:04:43;12.35;;;6.88;;
85104;SDS011;75457;53.198;45.008;2024-01-30T06:07:09;16.70;;;7.35;;
85104;SDS011;75457;53.198;45.008;2024-01-30T06:09:35;15.73;;;8.75;;
85104;SDS011;75457;53.198;45.008;2024-01-30T06:12:00;12.38;;;8.23;;
85104;SDS011;75457;53.198;45.008;2024-01-30T06:14:26;13.75;;;8.00;;
85104;SDS011;75457;53.198;45.008;2024-01-30T06:16:51;11.95;;;7.18;;
85104;SDS011;75457;53.198;45.008;2024-01-30T06:19:18;12.85;;;7.00;;
85104;SDS011;75457;53.198;45.008;2024-01-30T06:21:44;12.77;;;7.70;;
85104;SDS011;75457;53.198;45.008;2024-01-30T06:24:10;14.13;;;7.90;;
85104;SDS011;75457;53.198;45.008;2024-01-30T06:26:35;12.80;;;7.55;;
85104;SDS011;75457;53.198;45.008;2024-01-30T06:29:01;13.60;;;8.52;;
85104;SDS011;75457;53.198;45.008;2024-01-30T06:31:27;13.18;;;7.72;;
85104;SDS011;75457;53.198;45.008;2024-01-30T06:33:52;11.85;;;7.13;;
85104;SDS011;75457;53.198;45.008;2024-01-30T06:36:19;12.30;;;6.70;;
85104;SDS011;75457;53.198;45.008;2024-01-30T06:38:45;12.35;;;7.40;;
85104;SDS011;75457;53.198;45.008;2024-01-30T06:41:10;13.70;;;7.63;;
85104;SDS011;75457;53.198;45.008;2024-01-30T06:43:36;13.80;;;7.78;;
85104;SDS011;75457;53.198;45.008;2024-01-30T06:46:01;13.55;;;8.00;;
85104;SDS011;75457;53.198;45.008;2024-01-30T06:48:27;14.88;;;7.82;;
85104;SDS011;75457;53.198;45.008;2024-01-30T06:50:53;15.57;;;7.75;;
85104;SDS011;75457;53.198;45.008;2024-01-30T06:53:20;14.20;;;7.78;;
85104;SDS011;75457;53.198;45.008;2024-01-30T06:55:45;13.88;;;7.43;;
85104;SDS011;75457;53.198;45.008;2024-01-30T06:58:11;12.00;;;6.97;;
85104;SDS011;75457;53.198;45.008;2024-01-30T07:00:36;14.60;;;8.45;;
85104;SDS011;75457;53.198;45.008;2024-01-30T07:03:02;18.63;;;8.18;;
85104;SDS011;75457;53.198;45.008;2024-01-30T07:05:28;15.85;;;8.38;;
85104;SDS011;75457;53.198;45.008;2024-01-30T07:07:54;14.90;;;8.63;;
85104;SDS011;75457;53.198;45.008;2024-01-30T07:10:21;15.90;;;7.72;;
85104;SDS011;75457;53.198;45.008;2024-01-30T07:12:47;14.10;;;8.50;;
85104;SDS011;75457;53.198;45.008;2024-01-30T07:15:13;13.52;;;8.27;;
85104;SDS011;75457;53.198;45.008;2024-01-30T07:17:39;14.52;;;8.32;;
85104;SDS011;75457;53.198;45.008;2024-01-30T07:20:05;14.73;;;8.85;;
85104;SDS011;75457;53.198;45.008;2024-01-30T07:22:32;15.88;;;8.52;;
85104;SDS011;75457;53.198;45.008;2024-01-30T07:24:58;17.38;;;9.02;;
85104;SDS011;75457;53.198;45.008;2024-01-30T07:27:25;17.98;;;9.02;;
85104;SDS011;75457;53.198;45.008;2024-01-30T07:29:50;17.42;;;9.25;;
85104;SDS011;75457;53.198;45.008;2024-01-30T07:32:22;15.77;;;8.65;;
85104;SDS011;75457;53.198;45.008;2024-01-30T07:34:47;15.10;;;8.35;;
85104;SDS011;75457;53.198;45.008;2024-01-30T07:37:13;15.93;;;9.60;;
85104;SDS011;75457;53.198;45.008;2024-01-30T07:39:38;16.35;;;9.35;;
85104;SDS011;75457;53.198;45.008;2024-01-30T07:42:04;19.83;;;9.45;;
85104;SDS011;75457;53.198;45.008;2024-01-30T07:44:31;19.65;;;9.80;;
85104;SDS011;75457;53.198;45.008;2024-01-30T07:46:56;14.77;;;9.40;;
85104;SDS011;75457;53.198;45.008;2024-01-30T07:49:22;15.45;;;8.73;;
85104;SDS011;75457;53.198;45.008;2024-01-30T07:51:48;18.48;;;10.25;;
85104;SDS011;75457;53.198;45.008;2024-01-30T07:54:13;18.48;;;9.73;;
85104;SDS011;75457;53.198;45.008;2024-01-30T07:56:39;17.20;;;9.93;;
85104;SDS011;75457;53.198;45.008;2024-01-30T07:59:04;15.52;;;8.32;;
85104;SDS011;75457;53.198;45.008;2024-01-30T08:01:31;19.52;;;10.88;;
85104;SDS011;75457;53.198;45.008;2024-01-30T08:03:57;16.90;;;9.13;;
85104;SDS011;75457;53.198;45.008;2024-01-30T08:06:22;18.58;;;10.13;;
85104;SDS011;75457;53.198;45.008;2024-01-30T08:08:48;17.20;;;9.07;;
85104;SDS011;75457;53.198;45.008;2024-01-30T08:11:13;19.90;;;9.82;;
85104;SDS011;75457;53.198;45.008;2024-01-30T08:13:39;20.15;;;10.50;;
85104;SDS011;75457;53.198;45.008;2024-01-30T08:16:05;20.10;;;10.25;;
85104;SDS011;75457;53.198;45.008;2024-01-30T08:18:32;19.10;;;9.55;;
85104;SDS011;75457;53.198;45.008;2024-01-30T08:20:58;15.98;;;9.18;;
85104;SDS011;75457;53.198;45.008;2024-01-30T08:23:23;20.58;;;10.45;;
85104;SDS011;75457;53.198;45.008;2024-01-30T08:25:49;17.50;;;9.43;;
85104;SDS011;75457;53.198;45.008;2024-01-30T08:28:14;22.05;;;10.05;;
85104;SDS011;75457;53.198;45.008;2024-01-30T08:30:40;18.60;;;9.90;;
85104;SDS011;75457;53.198;45.008;2024-01-30T08:33:05;16.73;;;9.43;;
85104;SDS011;75457;53.198;45.008;2024-01-30T08:35:32;18.48;;;9.07;;
85104;SDS011;75457;53.198;45.008;2024-01-30T08:37:58;17.52;;;9.32;;
85104;SDS011;75457;53.198;45.008;2024-01-30T08:40:23;17.45;;;9.48;;
85104;SDS011;75457;53.198;45.008;2024-01-30T08:42:49;21.30;;;9.98;;
85104;SDS011;75457;53.198;45.008;2024-01-30T08:45:15;19.60;;;9.52;;
85104;SDS011;75457;53.198;45.008;2024-01-30T08:47:40;18.85;;;10.15;;
85104;SDS011;75457;53.198;45.008;2024-01-30T08:50:06;22.73;;;10.15;;
85104;SDS011;75457;53.198;45.008;2024-01-30T08:52:34;18.33;;;9.43;;
85104;SDS011;75457;53.198;45.008;2024-01-30T08:54:59;18.35;;;10.90;;
85104;SDS011;75457;53.198;45.008;2024-01-30T08:57:25;19.63;;;9.85;;
85104;SDS011;75457;53.198;45.008;2024-01-30T08:59:50;23.23;;;10.13;;
85104;SDS011;75457;53.198;45.008;2024-01-30T09:02:16;18.60;;;9.75;;
85104;SDS011;75457;53.198;45.008;2024-01-30T09:04:41;18.73;;;10.30;;
85104;SDS011;75457;53.198;45.008;2024-01-30T09:07:08;18.92;;;10.15;;
85104;SDS011;75457;53.198;45.008;2024-01-30T09:09:37;17.90;;;9.13;;
85104;SDS011;75457;53.198;45.008;2024-01-30T09:12:03;20.05;;;9.77;;
85104;SDS011;75457;53.198;45.008;2024-01-30T09:14:28;20.20;;;9.75;;
85104;SDS011;75457;53.198;45.008;2024-01-30T09:16:54;20.45;;;9.27;;
85104;SDS011;75457;53.198;45.008;2024-01-30T09:19:19;18.38;;;9.10;;
85104;SDS011;75457;53.198;45.008;2024-01-30T09:21:45;20.25;;;10.48;;
85104;SDS011;75457;53.198;45.008;2024-01-30T09:24:11;20.58;;;10.80;;
85104;SDS011;75457;53.198;45.008;2024-01-30T09:26:38;22.23;;;10.50;;
85104;SDS011;75457;53.198;45.008;2024-01-30T09:29:03;21.08;;;10.90;;
85104;SDS011;75457;53.198;45.008;2024-01-30T09:31:29;19.50;;;10.02;;
85104;SDS011;75457;53.198;45.008;2024-01-30T09:33:54;22.77;;;10.15;;
85104;SDS011;75457;53.198;45.008;2024-01-30T09:36:20;23.92;;;11.13;;
85104;SDS011;75457;53.198;45.008;2024-01-30T09:38:46;21.10;;;11.13;;
85104;SDS011;75457;53.198;45.008;2024-01-30T09:41:11;21.65;;;11.40;;
85104;SDS011;75457;53.198;45.008;2024-01-30T09:43:39;16.33;;;9.23;;
85104;SDS011;75457;53.198;45.008;2024-01-30T09:46:05;18.10;;;9.63;;
85104;SDS011;75457;53.198;45.008;2024-01-30T09:48:31;22.30;;;10.93;;
85104;SDS011;75457;53.198;45.008;2024-01-30T09:50:58;21.85;;;10.95;;
85104;SDS011;75457;53.198;45.008;2024-01-30T09:53:24;22.17;;;10.73;;
85104;SDS011;75457;53.198;45.008;2024-01-30T09:55:50;20.08;;;10.25;;
85104;SDS011;75457;53.198;45.008;2024-01-30T09:58:16;20.02;;;9.63;;
85104;SDS011;75457;53.198;45.008;2024-01-30T10:00:43;20.70;;;11.55;;
85104;SDS011;75457;53.198;45.008;2024-01-30T10:03:09;19.42;;;10.18;;
85104;SDS011;75457;53.198;45.008;2024-01-30T10:05:35;17.52;;;9.55;;
85104;SDS011;75457;53.198;45.008;2024-01-30T10:08:01;22.92;;;11.05;;
85104;SDS011;75457;53.198;45.008;2024-01-30T10:10:30;17.52;;;8.43;;
85104;SDS011;75457;53.198;45.008;2024-01-30T10:12:56;24.67;;;11.15;;
85104;SDS011;75457;53.198;45.008;2024-01-30T10:15:21;23.42;;;12.75;;
85104;SDS011;75457;53.198;45.008;2024-01-30T10:17:49;25.15;;;12.35;;
85104;SDS011;75457;53.198;45.008;2024-01-30T10:20:14;23.33;;;12.13;;
85104;SDS011;75457;53.198;45.008;2024-01-30T10:22:40;24.45;;;11.43;;
85104;SDS011;75457;53.198;45.008;2024-01-30T10:25:06;22.15;;;12.77;;
85104;SDS011;75457;53.198;45.008;2024-01-30T10:27:32;23.33;;;11.13;;
85104;SDS011;75457;53.198;45.008;2024-01-30T10:29:58;20.90;;;10.20;;
85104;SDS011;75457;53.198;45.008;2024-01-30T10:32:23;25.08;;;11.82;;
85104;SDS011;75457;53.198;45.008;2024-01-30T10:34:52;24.40;;;10.95;;
85104;SDS011;75457;53.198;45.008;2024-01-30T10:37:17;23.75;;;12.52;;
85104;SDS011;75457;53.198;45.008;2024-01-30T10:39:46;22.45;;;11.68;;
85104;SDS011;75457;53.198;45.008;2024-01-30T10:42:12;20.50;;;10.77;;
85104;SDS011;75457;53.198;45.008;2024-01-30T10:44:48;24.23;;;12.50;;
85104;SDS011;75457;53.198;45.008;2024-01-30T10:47:22;23.65;;;11.30;;
85104;SDS011;75457;53.198;45.008;2024-01-30T10:49:53;23.83;;;11.80;;
85104;SDS011;75457;53.198;45.008;2024-01-30T10:52:20;21.17;;;11.70;;
85104;SDS011;75457;53.198;45.008;2024-01-30T10:54:47;21.33;;;11.95;;
85104;SDS011;75457;53.198;45.008;2024-01-30T10:57:15;20.88;;;11.00;;
85104;SDS011;75457;53.198;45.008;2024-01-30T10:59:41;21.58;;;11.43;;
85104;SDS011;75457;53.198;45.008;2024-01-30T11:02:07;22.77;;;11.40;;
85104;SDS011;75457;53.198;45.008;2024-01-30T11:04:36;24.02;;;12.73;;
85104;SDS011;75457;53.198;45.008;2024-01-30T11:07:03;23.88;;;11.93;;
85104;SDS011;75457;53.198;45.008;2024-01-30T11:09:39;23.75;;;12.10;;
85104;SDS011;75457;53.198;45.008;2024-01-30T11:12:05;23.17;;;12.52;;
85104;SDS011;75457;53.198;45.008;2024-01-30T11:14:31;23.38;;;11.82;;
85104;SDS011;75457;53.198;45.008;2024-01-30T11:16:57;25.40;;;12.65;;
85104;SDS011;75457;53.198;45.008;2024-01-30T11:19:23;29.60;;;12.38;;
85104;SDS011;75457;53.198;45.008;2024-01-30T11:21:50;23.30;;;12.20;;
85104;SDS011;75457;53.198;45.008;2024-01-30T11:24:18;28.75;;;13.68;;
85104;SDS011;75457;53.198;45.008;2024-01-30T11:26:44;27.52;;;13.07;;
85104;SDS011;75457;53.198;45.008;2024-01-30T11:29:09;22.52;;;10.48;;
85104;SDS011;75457;53.198;45.008;2024-01-30T11:31:38;26.05;;;12.90;;
85104;SDS011;75457;53.198;45.008;2024-01-30T11:34:04;29.48;;;14.10;;
85104;SDS011;75457;53.198;45.008;2024-01-30T11:36:31;24.77;;;12.15;;
85104;SDS011;75457;53.198;45.008;2024-01-30T11:38:59;25.77;;;11.52;;
85104;SDS011;75457;53.198;45.008;2024-01-30T11:41:26;24.15;;;11.93;;
85104;SDS011;75457;53.198;45.008;2024-01-30T11:43:53;25.20;;;12.38;;
85104;SDS011;75457;53.198;45.008;2024-01-30T11:46:19;23.10;;;11.35;;
85104;SDS011;75457;53.198;45.008;2024-01-30T11:48:44;22.80;;;11.63;;
85104;SDS011;75457;53.198;45.008;2024-01-30T11:51:10;27.52;;;12.45;;
85104;SDS011;75457;53.198;45.008;2024-01-30T11:53:38;22.23;;;11.60;;
85104;SDS011;75457;53.198;45.008;2024-01-30T11:56:05;24.77;;;11.60;;
85104;SDS011;75457;53.198;45.008;2024-01-30T11:58:33;29.73;;;12.20;;
85104;SDS011;75457;53.198;45.008;2024-01-30T12:00:58;25.10;;;12.73;;
85104;SDS011;75457;53.198;45.008;2024-01-30T12:03:24;29.08;;;12.55;;
85104;SDS011;75457;53.198;45.008;2024-01-30T12:05:54;27.45;;;12.25;;
85104;SDS011;75457;53.198;45.008;2024-01-30T12:08:20;25.63;;;12.27;;
85104;SDS011;75457;53.198;45.008;2024-01-30T12:10:46;28.67;;;12.93;;
85104;SDS011;75457;53.198;45.008;2024-01-30T12:13:20;27.20;;;11.75;;
85104;SDS011;75457;53.198;45.008;2024-01-30T12:15:47;27.48;;;12.60;;
85104;SDS011;75457;53.198;45.008;2024-01-30T12:18:13;26.25;;;12.38;;
85104;SDS011;75457;53.198;45.008;2024-01-30T12:20:39;25.13;;;12.93;;
85104;SDS011;75457;53.198;45.008;2024-01-30T12:23:04;27.55;;;11.82;;
85104;SDS011;75457;53.198;45.008;2024-01-30T12:25:30;25.33;;;13.70;;
85104;SDS011;75457;53.198;45.008;2024-01-30T12:27:56;24.55;;;11.60;;
85104;SDS011;75457;53.198;45.008;2024-01-30T12:30:22;27.13;;;12.18;;
85104;SDS011;75457;53.198;45.008;2024-01-30T12:32:50;24.45;;;12.65;;
85104;SDS011;75457;53.198;45.008;2024-01-30T12:35:17;24.48;;;12.68;;
85104;SDS011;75457;53.198;45.008;2024-01-30T12:37:44;26.20;;;12.88;;
85104;SDS011;75457;53.198;45.008;2024-01-30T12:40:10;25.77;;;12.75;;
85104;SDS011;75457;53.198;45.008;2024-01-30T12:42:36;24.73;;;12.82;;
85104;SDS011;75457;53.198;45.008;2024-01-30T12:45:02;26.08;;;13.10;;
85104;SDS011;75457;53.198;45.008;2024-01-30T12:47:29;25.42;;;12.65;;
85104;SDS011;75457;53.198;45.008;2024-01-30T12:49:56;24.65;;;13.25;;
85104;SDS011;75457;53.198;45.008;2024-01-30T12:52:21;28.65;;;12.55;;
85104;SDS011;75457;53.198;45.008;2024-01-30T12:54:47;25.17;;;12.38;;
85104;SDS011;75457;53.198;45.008;2024-01-30T12:57:13;25.88;;;12.52;;
85104;SDS011;75457;53.198;45.008;2024-01-30T12:59:38;27.88;;;12.57;;
85104;SDS011;75457;53.198;45.008;2024-01-30T13:02:04;23.95;;;13.50;;
85104;SDS011;75457;53.198;45.008;2024-01-30T13:04:30;28.77;;;13.45;;
85104;SDS011;75457;53.198;45.008;2024-01-30T13:06:57;26.50;;;12.82;;
85104;SDS011;75457;53.198;45.008;2024-01-30T13:09:23;24.50;;;12.57;;
85104;SDS011;75457;53.198;45.008;2024-01-30T13:11:48;26.00;;;12.15;;
85104;SDS011;75457;53.198;45.008;2024-01-30T13:14:14;28.05;;;13.13;;
85104;SDS011;75457;53.198;45.008;2024-01-30T13:16:40;21.67;;;11.63;;
85104;SDS011;75457;53.198;45.008;2024-01-30T13:19:05;24.48;;;12.35;;
85104;SDS011;75457;53.198;45.008;2024-01-30T13:21:31;24.88;;;12.80;;
85104;SDS011;75457;53.198;45.008;2024-01-30T13:23:58;25.00;;;12.63;;
85104;SDS011;75457;53.198;45.008;2024-01-30T13:26:23;26.60;;;12.77;;
85104;SDS011;75457;53.198;45.008;2024-01-30T13:28:49;24.95;;;11.65;;
85104;SDS011;75457;53.198;45.008;2024-01-30T13:31:15;24.02;;;11.45;;
85104;SDS011;75457;53.198;45.008;2024-01-30T13:33:40;23.20;;;11.82;;
85104;SDS011;75457;53.198;45.008;2024-01-30T13:36:06;26.77;;;12.88;;
85104;SDS011;75457;53.198;45.008;2024-01-30T13:38:32;23.95;;;12.15;;
85104;SDS011;75457;53.198;45.008;2024-01-30T13:40:59;22.27;;;11.43;;
85104;SDS011;75457;53.198;45.008;2024-01-30T13:43:25;24.30;;;11.98;;
85104;SDS011;75457;53.198;45.008;2024-01-30T13:45:50;22.00;;;11.50;;
85104;SDS011;75457;53.198;45.008;2024-01-30T13:48:16;21.98;;;11.70;;
85104;SDS011;75457;53.198;45.008;2024-01-30T13:50:41;21.30;;;12.70;;
85104;SDS011;75457;53.198;45.008;2024-01-30T13:53:07;33.95;;;17.25;;
85104;SDS011;75457;53.198;45.008;2024-01-30T13:55:33;26.92;;;12.43;;
85104;SDS011;75457;53.198;45.008;2024-01-30T13:58:00;22.20;;;11.73;;
85104;SDS011;75457;53.198;45.008;2024-01-30T14:00:26;25.70;;;11.98;;
85104;SDS011;75457;53.198;45.008;2024-01-30T14:02:51;21.17;;;12.23;;
85104;SDS011;75457;53.198;45.008;2024-01-30T14:05:17;24.45;;;12.40;;
85104;SDS011;75457;53.198;45.008;2024-01-30T14:07:42;25.63;;;13.38;;
85104;SDS011;75457;53.198;45.008;2024-01-30T14:10:09;24.13;;;11.93;;
85104;SDS011;75457;53.198;45.008;2024-01-30T14:12:34;22.73;;;12.45;;
85104;SDS011;75457;53.198;45.008;2024-01-30T14:15:01;23.50;;;12.75;;
85104;SDS011;75457;53.198;45.008;2024-01-30T14:17:27;22.80;;;11.25;;
85104;SDS011;75457;53.198;45.008;2024-01-30T14:19:53;20.73;;;11.25;;
85104;SDS011;75457;53.198;45.008;2024-01-30T14:22:18;23.20;;;11.20;;
85104;SDS011;75457;53.198;45.008;2024-01-30T14:24:44;22.55;;;10.30;;